createdAt,value
2019-03-28T00:00:45.396Z,1028.06
2019-03-28T00:02:38.398Z,1028.02
2019-03-28T00:03:38.436Z,1028.06
2019-03-28T00:05:31.419Z,1028.03
2019-03-28T00:06:31.479Z,1028.03
2019-03-28T00:08:24.490Z,1028.01
2019-03-28T00:09:24.525Z,1028.03
2019-03-28T00:11:17.533Z,1028.06
2019-03-28T00:12:17.565Z,1028.07
2019-03-28T00:14:10.624Z,1028.07
2019-03-28T00:15:10.664Z,1028.13
2019-03-28T00:17:03.665Z,1028.17
2019-03-28T00:18:03.703Z,1028.17
2019-03-28T00:19:56.691Z,1028.18
2019-03-28T00:20:56.747Z,1028.13
2019-03-28T00:22:49.753Z,1028.15
2019-03-28T00:23:49.783Z,1028.15
2019-03-28T00:25:42.762Z,1028.17
2019-03-28T00:26:42.820Z,1028.15
2019-03-28T00:28:35.826Z,1028.13
2019-03-28T00:29:35.866Z,1028.15
2019-03-28T00:31:28.848Z,1028.14
2019-03-28T00:32:28.909Z,1028.12
2019-03-28T00:34:21.904Z,1028.12
2019-03-28T00:35:21.942Z,1028.14
2019-03-28T00:37:14.946Z,1028.15
2019-03-28T00:38:14.982Z,1028.21
2019-03-28T00:40:07.993Z,1028.23
2019-03-28T00:41:08.032Z,1028.20
2019-03-28T00:43:01.029Z,1028.20
2019-03-28T00:44:01.068Z,1028.21
2019-03-28T00:45:54.072Z,1028.21
2019-03-28T00:46:54.111Z,1028.18
2019-03-28T00:48:47.118Z,1028.19
2019-03-28T00:49:47.161Z,1028.17
2019-03-28T00:51:43.005Z,1028.12
2019-03-28T00:52:40.200Z,1028.14
2019-03-28T00:54:33.197Z,1028.12
2019-03-28T00:55:33.233Z,1028.09
2019-03-28T00:57:26.235Z,1028.07
2019-03-28T00:58:26.271Z,1028.05
2019-03-28T01:00:19.276Z,1028.06
2019-03-28T01:01:19.323Z,1028.09
2019-03-28T01:03:12.300Z,1028.06
2019-03-28T01:04:12.355Z,1028.07
2019-03-28T01:06:05.353Z,1028.08
2019-03-28T01:07:05.391Z,1028.04
2019-03-28T01:08:58.392Z,1028.02
2019-03-28T01:09:58.430Z,1028.03
2019-03-28T01:11:51.422Z,1028.02
2019-03-28T01:12:51.471Z,1028.02
2019-03-28T01:14:44.445Z,1028.03
2019-03-28T01:15:44.503Z,1028.05
2019-03-28T01:17:37.513Z,1028.01
2019-03-28T01:18:37.543Z,1028.00
2019-03-28T01:20:30.534Z,1027.97
2019-03-28T01:21:30.587Z,1027.96
2019-03-28T01:23:23.577Z,1027.95
2019-03-28T01:24:23.624Z,1027.96
2019-03-28T01:26:16.631Z,1027.97
2019-03-28T01:27:16.663Z,1027.98
2019-03-28T01:29:09.642Z,1027.96
2019-03-28T01:30:09.700Z,1027.94
2019-03-28T01:32:02.704Z,1027.93
2019-03-28T01:33:02.745Z,1027.93
2019-03-28T01:34:55.743Z,1027.95
2019-03-28T01:35:55.798Z,1027.93
2019-03-28T01:37:48.805Z,1027.98
2019-03-28T01:38:48.847Z,1027.94
2019-03-28T01:40:41.847Z,1027.92
2019-03-28T01:41:41.887Z,1027.96
2019-03-28T01:43:34.870Z,1027.96
2019-03-28T01:44:34.926Z,1027.99
2019-03-28T01:46:27.933Z,1028.01
2019-03-28T01:47:27.968Z,1027.92
2019-03-28T01:49:20.964Z,1027.93
2019-03-28T01:50:21.022Z,1027.91
2019-03-28T01:52:14.019Z,1027.91
2019-03-28T01:53:14.058Z,1027.89
2019-03-28T01:55:07.040Z,1027.86
2019-03-28T01:56:07.098Z,1027.85
2019-03-28T01:58:00.101Z,1027.85
2019-03-28T01:59:00.134Z,1027.86
2019-03-28T02:00:53.137Z,1027.85
2019-03-28T02:01:53.159Z,1027.91
2019-03-28T02:03:46.155Z,1027.87
2019-03-28T02:04:46.213Z,1027.88
2019-03-28T02:06:39.210Z,1027.90
2019-03-28T02:07:39.249Z,1027.91
2019-03-28T02:09:32.371Z,1027.91
2019-03-28T02:10:32.289Z,1027.91
2019-03-28T02:12:25.303Z,1027.93
2019-03-28T02:13:25.330Z,1027.90
2019-03-28T02:15:18.409Z,1027.94
2019-03-28T02:16:18.365Z,1027.92
2019-03-28T02:18:11.369Z,1027.97
2019-03-28T02:19:11.410Z,1027.96
2019-03-28T02:21:04.408Z,1027.91
2019-03-28T02:22:04.446Z,1027.93
2019-03-28T02:23:57.423Z,1027.90
2019-03-28T02:24:57.483Z,1027.92
2019-03-28T02:26:50.473Z,1027.93
2019-03-28T02:27:51.197Z,1027.93
2019-03-28T02:29:43.519Z,1027.93
2019-03-28T02:30:43.558Z,1027.93
2019-03-28T02:32:36.558Z,1027.96
2019-03-28T02:33:36.596Z,1027.95
2019-03-28T02:35:29.586Z,1027.97
2019-03-28T02:36:29.643Z,1028.00
2019-03-28T02:38:22.643Z,1027.98
2019-03-28T02:39:22.684Z,1027.98
2019-03-28T02:41:15.671Z,1027.98
2019-03-28T02:42:15.718Z,1028.04
2019-03-28T02:44:08.761Z,1028.01
2019-03-28T02:45:08.755Z,1028.00
2019-03-28T02:47:01.768Z,1028.02
2019-03-28T02:48:02.068Z,1028.01
2019-03-28T02:49:54.780Z,1027.99
2019-03-28T02:50:54.838Z,1028.00
2019-03-28T02:52:47.912Z,1028.00
2019-03-28T02:53:47.950Z,1028.03
2019-03-28T02:55:40.926Z,1028.07
2019-03-28T02:56:41.746Z,1028.05
2019-03-28T02:58:33.984Z,1028.08
2019-03-28T02:59:34.025Z,1028.09
2019-03-28T03:01:30.157Z,1028.04
2019-03-28T03:02:27.070Z,1028.07
2019-03-28T03:04:20.059Z,1028.06
2019-03-28T03:05:20.107Z,1028.08
2019-03-28T03:07:13.081Z,1028.10
2019-03-28T03:08:13.134Z,1028.11
2019-03-28T03:10:06.146Z,1028.09
2019-03-28T03:11:06.173Z,1028.13
2019-03-28T03:12:59.168Z,1028.11
2019-03-28T03:13:59.205Z,1028.11
2019-03-28T03:15:52.211Z,1028.11
2019-03-28T03:16:52.243Z,1028.14
2019-03-28T03:18:45.229Z,1028.10
2019-03-28T03:19:45.282Z,1028.09
2019-03-28T03:21:38.292Z,1028.08
2019-03-28T03:22:38.320Z,1028.14
2019-03-28T03:24:31.301Z,1028.17
2019-03-28T03:25:31.358Z,1028.22
2019-03-28T03:27:24.354Z,1028.22
2019-03-28T03:28:24.400Z,1028.22
2019-03-28T03:30:17.372Z,1028.28
2019-03-28T03:31:20.905Z,1028.26
2019-03-28T03:33:10.434Z,1028.30
2019-03-28T03:34:10.470Z,1028.27
2019-03-28T03:36:03.464Z,1028.28
2019-03-28T03:37:04.013Z,1028.28
2019-03-28T03:38:56.519Z,1028.27
2019-03-28T03:39:56.566Z,1028.27
2019-03-28T03:41:49.559Z,1028.27
2019-03-28T03:42:49.599Z,1028.28
2019-03-28T03:44:42.622Z,1028.24
2019-03-28T03:45:42.657Z,1028.24
2019-03-28T03:47:35.670Z,1028.21
2019-03-28T03:48:35.771Z,1028.25
2019-03-28T03:50:29.190Z,1028.29
2019-03-28T03:51:29.252Z,1028.32
2019-03-28T03:53:22.234Z,1028.29
2019-03-28T03:54:22.290Z,1028.33
2019-03-28T03:56:15.264Z,1028.34
2019-03-28T03:57:15.321Z,1028.32
2019-03-28T03:59:08.317Z,1028.33
2019-03-28T04:00:08.369Z,1028.35
2019-03-28T04:02:01.357Z,1028.34
2019-03-28T04:03:02.295Z,1028.37
2019-03-28T04:04:56.592Z,1028.34
2019-03-28T04:05:54.446Z,1028.35
2019-03-28T04:07:47.441Z,1028.36
2019-03-28T04:08:47.480Z,1028.34
2019-03-28T04:10:40.491Z,1028.39
2019-03-28T04:11:40.523Z,1028.40
2019-03-28T04:13:33.521Z,1028.39
2019-03-28T04:14:33.552Z,1028.40
2019-03-28T04:16:26.549Z,1028.41
2019-03-28T04:17:26.604Z,1028.41
2019-03-28T04:19:19.578Z,1028.48
2019-03-28T04:20:19.634Z,1028.50
2019-03-28T04:22:12.634Z,1028.50
2019-03-28T04:23:12.713Z,1028.51
2019-03-28T04:25:05.652Z,1028.46
2019-03-28T04:26:06.010Z,1028.50
2019-03-28T04:27:58.735Z,1028.46
2019-03-28T04:28:58.749Z,1028.51
2019-03-28T04:30:51.726Z,1028.50
2019-03-28T04:31:51.797Z,1028.53
2019-03-28T04:33:44.792Z,1028.56
2019-03-28T04:34:44.821Z,1028.52
2019-03-28T04:36:37.874Z,1028.51
2019-03-28T04:37:37.909Z,1028.58
2019-03-28T04:39:30.906Z,1028.53
2019-03-28T04:40:30.966Z,1028.57
2019-03-28T04:42:23.993Z,1028.55
2019-03-28T04:43:24.015Z,1028.57
2019-03-28T04:45:17.009Z,1028.56
2019-03-28T04:46:17.053Z,1028.58
2019-03-28T04:48:10.032Z,1028.54
2019-03-28T04:49:10.104Z,1028.56
2019-03-28T04:51:03.650Z,1028.56
2019-03-28T04:52:03.702Z,1028.55
2019-03-28T04:53:56.692Z,1028.53
2019-03-28T04:54:56.741Z,1028.55
2019-03-28T04:56:49.721Z,1028.50
2019-03-28T04:57:49.769Z,1028.52
2019-03-28T04:59:42.777Z,1028.55
2019-03-28T05:00:42.818Z,1028.52
2019-03-28T05:02:35.833Z,1028.50
2019-03-28T05:03:35.862Z,1028.54
2019-03-28T05:05:28.872Z,1028.52
2019-03-28T05:06:28.902Z,1028.53
2019-03-28T05:08:21.890Z,1028.55
2019-03-28T05:09:21.993Z,1028.58
2019-03-28T05:11:14.945Z,1028.54
2019-03-28T05:12:14.986Z,1028.56
2019-03-28T05:14:08.061Z,1028.61
2019-03-28T05:15:08.105Z,1028.64
2019-03-28T05:17:01.159Z,1028.65
2019-03-28T05:18:01.169Z,1028.66
2019-03-28T05:19:54.130Z,1028.66
2019-03-28T05:20:54.200Z,1028.66
2019-03-28T05:22:47.202Z,1028.64
2019-03-28T05:23:47.225Z,1028.68
2019-03-28T05:25:40.266Z,1028.69
2019-03-28T05:26:40.253Z,1028.70
2019-03-28T05:28:33.322Z,1028.65
2019-03-28T05:29:33.334Z,1028.69
2019-03-28T05:31:26.373Z,1028.68
2019-03-28T05:32:26.443Z,1028.69
2019-03-28T05:34:19.386Z,1028.73
2019-03-28T05:35:19.437Z,1028.78
2019-03-28T05:37:12.449Z,1028.70
2019-03-28T05:38:12.507Z,1028.73
2019-03-28T05:40:05.488Z,1028.72
2019-03-28T05:41:05.540Z,1028.70
2019-03-28T05:42:58.571Z,1028.69
2019-03-28T05:43:58.649Z,1028.65
2019-03-28T05:45:51.636Z,1028.72
2019-03-28T05:46:51.806Z,1028.67
2019-03-28T05:48:44.672Z,1028.75
2019-03-28T05:49:44.734Z,1028.70
2019-03-28T05:51:37.716Z,1028.68
2019-03-28T05:52:37.762Z,1028.70
2019-03-28T05:54:30.767Z,1028.74
2019-03-28T05:55:30.861Z,1028.72
2019-03-28T05:57:24.347Z,1028.72
2019-03-28T05:58:24.388Z,1028.72
2019-03-28T06:00:17.398Z,1028.71
2019-03-28T06:01:17.421Z,1028.72
2019-03-28T06:03:10.422Z,1028.74
2019-03-28T06:04:10.481Z,1028.70
2019-03-28T06:06:03.503Z,1028.67
2019-03-28T06:07:03.527Z,1028.66
2019-03-28T06:08:56.536Z,1028.66
2019-03-28T06:09:56.570Z,1028.68
2019-03-28T06:11:52.780Z,1028.72
2019-03-28T06:12:49.607Z,1028.74
2019-03-28T06:14:42.614Z,1028.72
2019-03-28T06:15:42.652Z,1028.73
2019-03-28T06:17:35.652Z,1028.75
2019-03-28T06:18:35.690Z,1028.77
2019-03-28T06:20:28.682Z,1028.85
2019-03-28T06:21:28.735Z,1028.87
2019-03-28T06:23:21.729Z,1028.91
2019-03-28T06:24:21.774Z,1028.85
2019-03-28T06:26:15.562Z,1028.84
2019-03-28T06:27:14.825Z,1028.82
2019-03-28T06:29:08.757Z,1028.84
2019-03-28T06:30:07.873Z,1028.80
2019-03-28T06:32:00.865Z,1028.83
2019-03-28T06:33:00.903Z,1028.80
2019-03-28T06:34:53.896Z,1028.83
2019-03-28T06:35:53.941Z,1028.80
2019-03-28T06:37:46.949Z,1028.80
2019-03-28T06:38:46.988Z,1028.79
2019-03-28T06:40:39.977Z,1028.81
2019-03-28T06:41:40.032Z,1028.85
2019-03-28T06:43:33.036Z,1028.82
2019-03-28T06:44:33.076Z,1028.85
2019-03-28T06:46:26.068Z,1028.89
2019-03-28T06:47:26.124Z,1028.94
2019-03-28T06:49:19.116Z,1028.94
2019-03-28T06:50:19.151Z,1028.95
2019-03-28T06:52:12.155Z,1028.96
2019-03-28T06:53:12.642Z,1028.93
2019-03-28T06:55:05.184Z,1028.97
2019-03-28T06:56:05.229Z,1028.96
2019-03-28T06:57:59.728Z,1029.04
2019-03-28T06:58:59.761Z,1029.04
2019-03-28T07:00:52.740Z,1029.08
2019-03-28T07:01:52.799Z,1029.14
2019-03-28T07:03:47.367Z,1029.17
2019-03-28T07:04:45.838Z,1029.21
2019-03-28T07:06:38.823Z,1029.20
2019-03-28T07:07:38.887Z,1029.21
2019-03-28T07:09:31.891Z,1029.21
2019-03-28T07:10:31.919Z,1029.25
2019-03-28T07:12:24.955Z,1029.24
2019-03-28T07:13:24.955Z,1029.24
2019-03-28T07:15:17.958Z,1029.24
2019-03-28T07:16:20.993Z,1029.27
2019-03-28T07:18:10.976Z,1029.28
2019-03-28T07:19:11.041Z,1029.29
2019-03-28T07:21:04.041Z,1029.32
2019-03-28T07:22:04.081Z,1029.31
2019-03-28T07:23:57.064Z,1029.37
2019-03-28T07:24:57.123Z,1029.34
2019-03-28T07:26:50.123Z,1029.35
2019-03-28T07:27:50.160Z,1029.34
2019-03-28T07:29:50.821Z,1029.36
2019-03-28T07:30:43.268Z,1029.38
2019-03-28T07:32:36.267Z,1029.41
2019-03-28T07:33:36.309Z,1029.43
2019-03-28T07:35:29.307Z,1029.44
2019-03-28T07:36:29.348Z,1029.43
2019-03-28T07:38:22.339Z,1029.51
2019-03-28T07:39:22.386Z,1029.45
2019-03-28T07:41:16.540Z,1029.45
2019-03-28T07:42:15.427Z,1029.43
2019-03-28T07:44:08.425Z,1029.45
2019-03-28T07:45:08.464Z,1029.41
2019-03-28T07:47:01.453Z,1029.44
2019-03-28T07:48:01.514Z,1029.43
2019-03-28T07:49:54.508Z,1029.45
2019-03-28T07:50:54.548Z,1029.41
2019-03-28T07:52:47.540Z,1029.43
2019-03-28T07:53:47.638Z,1029.41
2019-03-28T07:55:40.587Z,1029.40
2019-03-28T07:56:40.634Z,1029.41
2019-03-28T07:58:33.649Z,1029.43
2019-03-28T07:59:33.683Z,1029.46
2019-03-28T08:01:26.670Z,1029.47
2019-03-28T08:02:26.727Z,1029.46
2019-03-28T08:04:19.726Z,1029.47
2019-03-28T08:05:19.765Z,1029.48
2019-03-28T08:07:12.745Z,1029.42
2019-03-28T08:08:12.804Z,1029.42
2019-03-28T08:10:05.827Z,1029.41
2019-03-28T08:11:05.858Z,1029.42
2019-03-28T08:12:58.863Z,1029.41
2019-03-28T08:13:58.924Z,1029.41
2019-03-28T08:15:51.929Z,1029.36
2019-03-28T08:16:51.971Z,1029.39
2019-03-28T08:18:45.470Z,1029.43
2019-03-28T08:19:45.017Z,1029.36
2019-03-28T08:21:38.019Z,1029.41
2019-03-28T08:22:38.062Z,1029.43
2019-03-28T08:24:31.070Z,1029.47
2019-03-28T08:25:31.110Z,1029.52
2019-03-28T08:27:24.126Z,1029.48
2019-03-28T08:28:24.164Z,1029.49
2019-03-28T08:30:19.441Z,1029.58
2019-03-28T08:31:17.213Z,1029.63
2019-03-28T08:33:10.210Z,1029.65
2019-03-28T08:34:10.260Z,1029.62
2019-03-28T08:36:03.254Z,1029.64
2019-03-28T08:37:03.330Z,1029.69
2019-03-28T08:38:56.322Z,1029.65
2019-03-28T08:39:56.367Z,1029.59
2019-03-28T08:41:50.592Z,1029.63
2019-03-28T08:42:49.420Z,1029.59
2019-03-28T08:44:42.503Z,1029.69
2019-03-28T08:45:42.477Z,1029.66
2019-03-28T08:47:35.464Z,1029.68
2019-03-28T08:48:35.525Z,1029.70
2019-03-28T08:50:28.534Z,1029.74
2019-03-28T08:51:28.654Z,1029.75
2019-03-28T08:53:21.571Z,1029.75
2019-03-28T08:54:21.631Z,1029.73
2019-03-28T08:56:14.637Z,1029.75
2019-03-28T08:57:14.688Z,1029.75
2019-03-28T08:59:07.707Z,1029.79
2019-03-28T09:00:07.750Z,1029.83
2019-03-28T09:02:00.785Z,1029.82
2019-03-28T09:03:00.807Z,1029.88
2019-03-28T09:04:53.806Z,1029.87
2019-03-28T09:05:53.891Z,1029.82
2019-03-28T09:07:46.890Z,1029.85
2019-03-28T09:08:46.943Z,1029.82
2019-03-28T09:10:39.940Z,1029.82
2019-03-28T09:11:39.991Z,1029.85
2019-03-28T09:13:32.986Z,1029.82
2019-03-28T09:14:33.046Z,1029.88
2019-03-28T09:16:26.071Z,1029.85
2019-03-28T09:17:26.098Z,1029.91
2019-03-28T09:19:19.092Z,1029.92
2019-03-28T09:20:19.153Z,1029.92
2019-03-28T09:22:12.155Z,1029.88
2019-03-28T09:23:12.208Z,1029.89
2019-03-28T09:25:05.222Z,1029.90
2019-03-28T09:26:05.264Z,1029.93
2019-03-28T09:27:58.269Z,1029.94
2019-03-28T09:28:58.320Z,1029.96
2019-03-28T09:30:51.327Z,1029.94
2019-03-28T09:31:51.382Z,1029.92
2019-03-28T09:33:44.389Z,1029.93
2019-03-28T09:34:44.431Z,1029.89
2019-03-28T09:36:37.427Z,1029.87
2019-03-28T09:37:37.488Z,1029.92
2019-03-28T09:39:30.517Z,1029.90
2019-03-28T09:40:30.546Z,1029.87
2019-03-28T09:42:23.546Z,1029.89
2019-03-28T09:43:23.592Z,1029.87
2019-03-28T09:45:16.587Z,1029.93
2019-03-28T09:46:16.648Z,1029.93
2019-03-28T09:48:11.758Z,1029.87
2019-03-28T09:49:09.706Z,1029.85
2019-03-28T09:51:02.702Z,1029.83
2019-03-28T09:52:02.765Z,1029.85
2019-03-28T09:53:55.777Z,1029.82
2019-03-28T09:54:55.822Z,1029.83
2019-03-28T09:56:48.843Z,1029.81
2019-03-28T09:57:48.876Z,1029.81
2019-03-28T09:59:41.891Z,1029.84
2019-03-28T10:00:41.936Z,1029.85
2019-03-28T10:02:34.946Z,1029.88
2019-03-28T10:03:34.991Z,1029.84
2019-03-28T10:05:28.001Z,1029.84
2019-03-28T10:06:28.044Z,1029.84
2019-03-28T10:08:21.042Z,1029.84
2019-03-28T10:09:21.101Z,1029.89
2019-03-28T10:11:14.130Z,1029.86
2019-03-28T10:12:14.170Z,1029.87
2019-03-28T10:14:07.155Z,1029.80
2019-03-28T10:15:07.220Z,1029.86
2019-03-28T10:17:00.795Z,1029.83
2019-03-28T10:18:00.279Z,1029.84
2019-03-28T10:19:53.296Z,1029.86
2019-03-28T10:20:53.336Z,1029.87
2019-03-28T10:22:46.327Z,1029.82
2019-03-28T10:23:46.389Z,1029.80
2019-03-28T10:25:39.394Z,1029.77
2019-03-28T10:26:39.671Z,1029.78
2019-03-28T10:28:32.465Z,1029.79
2019-03-28T10:29:32.507Z,1029.83
2019-03-28T10:31:25.509Z,1029.80
2019-03-28T10:32:25.560Z,1029.84
2019-03-28T10:34:18.595Z,1029.85
2019-03-28T10:35:18.628Z,1029.92
2019-03-28T10:37:11.628Z,1029.90
2019-03-28T10:38:11.681Z,1029.90
2019-03-28T10:40:04.686Z,1029.90
2019-03-28T10:41:04.750Z,1029.92
2019-03-28T10:42:57.735Z,1029.90
2019-03-28T10:43:57.798Z,1029.90
2019-03-28T10:45:50.811Z,1029.86
2019-03-28T10:46:50.853Z,1029.90
2019-03-28T10:48:43.843Z,1029.87
2019-03-28T10:49:43.905Z,1029.88
2019-03-28T10:51:36.915Z,1029.83
2019-03-28T10:52:36.959Z,1029.82
2019-03-28T10:54:29.989Z,1029.86
2019-03-28T10:55:30.028Z,1029.86
2019-03-28T10:57:29.889Z,1029.75
2019-03-28T10:58:24.650Z,1029.78
2019-03-28T11:00:24.154Z,1029.78
2019-03-28T11:01:31.095Z,1029.76
2019-03-28T11:03:09.684Z,1029.71
2019-03-28T11:04:09.722Z,1029.73
2019-03-28T11:06:02.711Z,1029.72
2019-03-28T11:07:02.772Z,1029.75
2019-03-28T11:08:55.774Z,1029.73
2019-03-28T11:09:55.826Z,1029.74
2019-03-28T11:11:48.836Z,1029.76
2019-03-28T11:12:48.877Z,1029.69
2019-03-28T11:14:41.885Z,1029.71
2019-03-28T11:15:41.930Z,1029.68
2019-03-28T11:17:34.948Z,1029.66
2019-03-28T11:18:34.990Z,1029.67
2019-03-28T11:20:27.996Z,1029.70
2019-03-28T11:21:28.048Z,1029.70
2019-03-28T11:23:21.050Z,1029.67
2019-03-28T11:24:21.106Z,1029.67
2019-03-28T11:26:14.107Z,1029.67
2019-03-28T11:27:14.159Z,1029.64
2019-03-28T11:29:07.797Z,1029.66
2019-03-28T11:30:07.216Z,1029.67
2019-03-28T11:32:00.195Z,1029.71
2019-03-28T11:33:00.261Z,1029.69
2019-03-28T11:34:53.273Z,1029.73
2019-03-28T11:35:53.313Z,1029.74
2019-03-28T11:37:46.298Z,1029.70
2019-03-28T11:38:46.383Z,1029.68
2019-03-28T11:40:42.462Z,1029.71
2019-03-28T11:41:39.422Z,1029.72
2019-03-28T11:43:32.422Z,1029.67
2019-03-28T11:44:32.462Z,1029.68
2019-03-28T11:46:25.469Z,1029.67
2019-03-28T11:47:25.509Z,1029.65
2019-03-28T11:49:18.515Z,1029.71
2019-03-28T11:50:18.568Z,1029.70
2019-03-28T11:52:11.569Z,1029.71
2019-03-28T11:53:11.622Z,1029.73
2019-03-28T11:55:04.637Z,1029.74
2019-03-28T11:56:04.689Z,1029.71
2019-03-28T11:57:58.206Z,1029.72
2019-03-28T11:58:58.243Z,1029.71
2019-03-28T12:00:51.231Z,1029.71
2019-03-28T12:02:00.038Z,1029.74
2019-03-28T12:03:44.300Z,1029.73
2019-03-28T12:04:44.340Z,1029.73
2019-03-28T12:06:37.332Z,1029.72
2019-03-28T12:07:37.387Z,1029.67
2019-03-28T12:09:30.466Z,1029.64
2019-03-28T12:10:30.439Z,1029.66
2019-03-28T12:12:23.458Z,1029.68
2019-03-28T12:13:23.507Z,1029.70
2019-03-28T12:15:16.488Z,1029.66
2019-03-28T12:16:17.095Z,1029.64
2019-03-28T12:18:09.554Z,1029.66
2019-03-28T12:19:09.599Z,1029.60
2019-03-28T12:21:02.614Z,1029.64
2019-03-28T12:22:02.650Z,1029.70
2019-03-28T12:23:55.655Z,1029.73
2019-03-28T12:24:55.710Z,1029.70
2019-03-28T12:26:48.708Z,1029.65
2019-03-28T12:27:48.773Z,1029.63
2019-03-28T12:29:41.786Z,1029.62
2019-03-28T12:30:41.829Z,1029.64
2019-03-28T12:32:34.830Z,1029.63
2019-03-28T12:33:34.884Z,1029.61
2019-03-28T12:35:27.919Z,1029.60
2019-03-28T12:36:27.931Z,1029.63
2019-03-28T12:38:20.949Z,1029.57
2019-03-28T12:39:21.086Z,1029.58
2019-03-28T12:41:13.981Z,1029.60
2019-03-28T12:42:14.034Z,1029.59
2019-03-28T12:44:07.039Z,1029.58
2019-03-28T12:45:07.083Z,1029.58
2019-03-28T12:47:00.097Z,1029.59
2019-03-28T12:48:00.137Z,1029.55
2019-03-28T12:49:53.128Z,1029.57
2019-03-28T12:50:58.691Z,1029.57
2019-03-28T12:52:46.219Z,1029.52
2019-03-28T12:53:46.249Z,1029.54
2019-03-28T12:55:39.240Z,1029.54
2019-03-28T12:56:39.302Z,1029.54
2019-03-28T12:58:32.304Z,1029.53
2019-03-28T12:59:33.690Z,1029.50
2019-03-28T13:01:25.368Z,1029.52
2019-03-28T13:02:31.493Z,1029.50
2019-03-28T13:04:18.400Z,1029.50
2019-03-28T13:05:18.463Z,1029.49
2019-03-28T13:07:11.490Z,1029.45
2019-03-28T13:08:11.533Z,1029.46
2019-03-28T13:10:04.538Z,1029.43
2019-03-28T13:11:04.588Z,1029.39
2019-03-28T13:12:57.598Z,1029.43
2019-03-28T13:13:57.643Z,1029.41
2019-03-28T13:15:50.644Z,1029.43
2019-03-28T13:16:50.697Z,1029.41
2019-03-28T13:18:43.703Z,1029.37
2019-03-28T13:19:43.754Z,1029.37
2019-03-28T13:21:36.751Z,1029.35
2019-03-28T13:22:36.813Z,1029.34
2019-03-28T13:24:29.821Z,1029.32
2019-03-28T13:25:29.866Z,1029.30
2019-03-28T13:27:22.852Z,1029.32
2019-03-28T13:28:22.912Z,1029.33
2019-03-28T13:30:15.923Z,1029.34
2019-03-28T13:31:15.966Z,1029.34
2019-03-28T13:33:08.952Z,1029.34
2019-03-28T13:34:09.013Z,1029.36
2019-03-28T13:36:02.028Z,1029.33
2019-03-28T13:37:02.070Z,1029.40
2019-03-28T13:38:55.083Z,1029.37
2019-03-28T13:39:55.143Z,1029.36
2019-03-28T13:41:48.118Z,1029.38
2019-03-28T13:42:48.176Z,1029.38
2019-03-28T13:44:41.188Z,1029.31
2019-03-28T13:45:41.230Z,1029.31
2019-03-28T13:47:34.471Z,1029.27
2019-03-28T13:48:34.592Z,1029.26
2019-03-28T13:50:27.290Z,1029.25
2019-03-28T13:51:27.332Z,1029.21
2019-03-28T13:53:20.431Z,1029.22
2019-03-28T13:54:23.195Z,1029.23
2019-03-28T13:56:13.406Z,1029.25
2019-03-28T13:57:13.450Z,1029.19
2019-03-28T13:59:06.444Z,1029.18
2019-03-28T14:00:06.504Z,1029.16
2019-03-28T14:01:59.520Z,1029.17
2019-03-28T14:02:59.563Z,1029.15
2019-03-28T14:04:52.555Z,1029.15
2019-03-28T14:05:52.619Z,1029.15
2019-03-28T14:07:45.627Z,1029.14
2019-03-28T14:08:45.673Z,1029.12
2019-03-28T14:10:38.671Z,1029.15
2019-03-28T14:11:38.734Z,1029.11
2019-03-28T14:13:31.742Z,1029.13
2019-03-28T14:14:31.802Z,1029.10
2019-03-28T14:16:24.814Z,1029.14
2019-03-28T14:17:24.857Z,1029.10
2019-03-28T14:19:17.879Z,1029.12
2019-03-28T14:20:17.921Z,1029.10
2019-03-28T14:22:10.917Z,1029.07
2019-03-28T14:23:10.979Z,1029.04
2019-03-28T14:25:03.982Z,1029.01
2019-03-28T14:26:04.033Z,1029.02
2019-03-28T14:27:57.023Z,1029.02
2019-03-28T14:28:57.078Z,1029.01
2019-03-28T14:30:50.097Z,1029.00
2019-03-28T14:31:50.134Z,1028.97
2019-03-28T14:33:43.133Z,1028.94
2019-03-28T14:34:43.196Z,1028.95
2019-03-28T14:36:36.208Z,1028.92
2019-03-28T14:37:36.253Z,1028.94
2019-03-28T14:39:29.251Z,1028.96
2019-03-28T14:40:29.311Z,1028.94
2019-03-28T14:42:22.359Z,1028.95
2019-03-28T14:43:22.362Z,1028.95
2019-03-28T14:45:15.377Z,1028.94
2019-03-28T14:46:15.445Z,1028.93
2019-03-28T14:48:08.429Z,1028.92
2019-03-28T14:49:08.577Z,1028.95
2019-03-28T14:51:01.560Z,1028.89
2019-03-28T14:52:01.539Z,1028.90
2019-03-28T14:53:55.764Z,1028.91
2019-03-28T14:54:54.627Z,1028.88
2019-03-28T14:56:47.693Z,1028.89
2019-03-28T14:57:47.735Z,1028.92
2019-03-28T14:59:40.747Z,1028.88
2019-03-28T15:00:40.783Z,1028.84
2019-03-28T15:02:33.770Z,1028.85
2019-03-28T15:03:33.833Z,1028.83
2019-03-28T15:05:26.844Z,1028.83
2019-03-28T15:06:26.881Z,1028.83
2019-03-28T15:08:19.900Z,1028.80
2019-03-28T15:09:19.940Z,1028.82
2019-03-28T15:11:12.953Z,1028.79
2019-03-28T15:12:12.991Z,1028.79
2019-03-28T15:14:05.990Z,1028.78
2019-03-28T15:15:06.050Z,1028.82
2019-03-28T15:16:59.081Z,1028.76
2019-03-28T15:17:59.103Z,1028.79
2019-03-28T15:19:52.097Z,1028.80
2019-03-28T15:20:52.169Z,1028.86
2019-03-28T15:22:45.162Z,1028.84
2019-03-28T15:23:45.202Z,1028.83
2019-03-28T15:25:38.213Z,1028.83
2019-03-28T15:26:38.259Z,1028.80
2019-03-28T15:28:31.262Z,1028.84
2019-03-28T15:29:31.304Z,1028.83
2019-03-28T15:31:24.345Z,1028.86
2019-03-28T15:32:24.351Z,1028.83
2019-03-28T15:34:17.345Z,1028.82
2019-03-28T15:35:17.407Z,1028.80
2019-03-28T15:37:10.425Z,1028.81
2019-03-28T15:38:10.470Z,1028.81
2019-03-28T15:40:03.476Z,1028.81
2019-03-28T15:41:03.519Z,1028.80
2019-03-28T15:42:56.524Z,1028.82
2019-03-28T15:43:56.567Z,1028.79
2019-03-28T15:45:49.560Z,1028.77
2019-03-28T15:46:49.674Z,1028.78
2019-03-28T15:48:42.622Z,1028.82
2019-03-28T15:49:42.665Z,1028.80
2019-03-28T15:51:35.682Z,1028.86
2019-03-28T15:52:35.721Z,1028.82
2019-03-28T15:54:28.706Z,1028.86
2019-03-28T15:55:28.771Z,1028.90
2019-03-28T15:57:21.768Z,1028.85
2019-03-28T15:58:23.436Z,1028.82
2019-03-28T16:00:14.814Z,1028.85
2019-03-28T16:01:14.862Z,1028.80
2019-03-28T16:03:07.870Z,1028.81
2019-03-28T16:04:07.904Z,1028.86
2019-03-28T16:06:00.980Z,1028.84
2019-03-28T16:07:01.045Z,1028.87
2019-03-28T16:08:54.558Z,1028.80
2019-03-28T16:09:54.594Z,1028.83
2019-03-28T16:11:47.589Z,1028.77
2019-03-28T16:12:47.648Z,1028.79
2019-03-28T16:14:40.662Z,1028.77
2019-03-28T16:15:40.704Z,1028.79
2019-03-28T16:17:33.689Z,1028.85
2019-03-28T16:18:33.759Z,1028.82
2019-03-28T16:20:26.754Z,1028.80
2019-03-28T16:21:27.082Z,1028.79
2019-03-28T16:23:19.832Z,1028.83
2019-03-28T16:24:19.873Z,1028.77
2019-03-28T16:26:12.898Z,1028.80
2019-03-28T16:27:12.940Z,1028.81
2019-03-28T16:29:07.284Z,1028.78
2019-03-28T16:30:05.992Z,1028.82
2019-03-28T16:31:59.012Z,1028.78
2019-03-28T16:32:59.060Z,1028.75
2019-03-28T16:34:52.146Z,1028.78
2019-03-28T16:35:52.118Z,1028.82
2019-03-28T16:37:45.128Z,1028.83
2019-03-28T16:38:45.823Z,1028.88
2019-03-28T16:40:38.193Z,1028.82
2019-03-28T16:41:38.235Z,1028.86
2019-03-28T16:43:31.226Z,1028.79
2019-03-28T16:44:31.281Z,1028.84
2019-03-28T16:46:24.292Z,1028.85
2019-03-28T16:47:24.378Z,1028.84
2019-03-28T16:49:17.353Z,1028.85
2019-03-28T16:50:17.438Z,1028.82
2019-03-28T16:52:10.416Z,1028.84
2019-03-28T16:53:10.457Z,1028.84
2019-03-28T16:55:03.460Z,1028.82
2019-03-28T16:56:03.503Z,1028.79
2019-03-28T16:57:56.492Z,1028.80
2019-03-28T16:58:56.551Z,1028.78
2019-03-28T17:00:49.553Z,1028.76
2019-03-28T17:01:49.693Z,1028.73
2019-03-28T17:03:42.604Z,1028.71
2019-03-28T17:04:42.646Z,1028.74
2019-03-28T17:06:37.160Z,1028.76
2019-03-28T17:07:37.201Z,1028.76
2019-03-28T17:09:30.205Z,1028.78
2019-03-28T17:10:30.333Z,1028.78
2019-03-28T17:12:23.263Z,1028.81
2019-03-28T17:13:23.305Z,1028.82
2019-03-28T17:15:16.311Z,1028.80
2019-03-28T17:16:16.849Z,1028.79
2019-03-28T17:18:09.360Z,1028.80
2019-03-28T17:19:09.402Z,1028.79
2019-03-28T17:21:02.422Z,1028.78
2019-03-28T17:22:02.481Z,1028.76
2019-03-28T17:23:55.475Z,1028.77
2019-03-28T17:24:55.525Z,1028.82
2019-03-28T17:26:48.507Z,1028.81